createdAt,value
2023-01-17T00:00:03.465Z,79.77
2023-01-17T00:05:03.176Z,79.78
2023-01-17T00:10:03.293Z,79.7
2023-01-17T00:15:03.531Z,80
2023-01-17T00:20:02.942Z,79.85
2023-01-17T00:25:02.729Z,80.3
2023-01-17T00:30:03.448Z,81.63
2023-01-17T00:35:03.321Z,81.93
2023-01-17T00:40:03.047Z,81.93
2023-01-17T00:45:02.730Z,82.51
2023-01-17T00:50:03.452Z,82.43
2023-01-17T00:55:02.897Z,82.36
2023-01-17T01:00:03.318Z,80.65
2023-01-17T01:05:02.992Z,80.07
2023-01-17T01:10:02.818Z,80.69
2023-01-17T01:15:02.542Z,80.82
2023-01-17T01:20:03.294Z,81.13
2023-01-17T01:25:03.385Z,80.44
2023-01-17T01:30:02.585Z,80.72
2023-01-17T01:35:03.337Z,78.99
2023-01-17T01:40:02.979Z,78.63
2023-01-17T01:45:02.421Z,79.34
2023-01-17T01:50:03.400Z,78.67
2023-01-17T01:55:03.582Z,78.49
2023-01-17T02:00:03.004Z,78.89
2023-01-17T02:05:05.154Z,78.35
2023-01-17T02:10:02.843Z,79.38
2023-01-17T02:15:03.236Z,79.86
2023-01-17T02:20:02.857Z,79.7
2023-01-17T02:25:02.580Z,79.53
2023-01-17T02:30:03.445Z,79.19
2023-01-17T02:35:03.106Z,78.92
2023-01-17T02:40:02.973Z,79.36
2023-01-17T02:45:03.217Z,79.57
2023-01-17T02:50:02.891Z,77.92
2023-01-17T02:55:03.356Z,78.39
2023-01-17T03:00:02.601Z,78.97
2023-01-17T03:05:03.250Z,78.7
2023-01-17T03:10:03.088Z,78.61
2023-01-17T03:15:02.869Z,78.42
2023-01-17T03:20:02.702Z,78.21
2023-01-17T03:25:02.517Z,78.66
2023-01-17T03:30:03.406Z,79.84
2023-01-17T03:35:02.896Z,79.16
2023-01-17T03:40:02.804Z,80
2023-01-17T03:45:02.650Z,80.24
2023-01-17T03:50:02.670Z,81.55
2023-01-17T03:55:03.486Z,83.9
2023-01-17T04:00:03.821Z,85.69
2023-01-17T04:05:02.291Z,89.54
2023-01-17T04:10:03.256Z,90.11
2023-01-17T04:15:03.139Z,89.33
2023-01-17T04:20:02.930Z,90.43
2023-01-17T04:25:02.982Z,90
2023-01-17T04:30:02.547Z,90.15
2023-01-17T04:35:03.170Z,89.69
2023-01-17T04:40:03.182Z,89.73
2023-01-17T04:45:03.016Z,88.04
2023-01-17T04:50:02.639Z,88.63
2023-01-17T04:55:04.023Z,87.66
2023-01-17T05:00:03.295Z,87.37
2023-01-17T05:05:03.211Z,86.8
2023-01-17T05:10:03.154Z,86.8
2023-01-17T05:15:03.096Z,86.21
2023-01-17T05:20:03.270Z,86.45
2023-01-17T05:25:03.103Z,85.39
2023-01-17T05:30:02.848Z,83.66
2023-01-17T05:35:02.667Z,87.19
2023-01-17T05:40:02.799Z,85.55
2023-01-17T05:45:02.767Z,84.55
2023-01-17T05:50:02.842Z,83.99
2023-01-17T05:55:03.253Z,84.62
2023-01-17T06:00:03.492Z,82.71
2023-01-17T06:05:04.081Z,82.31
2023-01-17T06:10:03.364Z,82.22
2023-01-17T06:15:03.181Z,82.63
2023-01-17T06:20:02.671Z,81.61
2023-01-17T06:25:02.990Z,82.55
2023-01-17T06:30:02.886Z,81.98
2023-01-17T06:35:02.542Z,80.76
2023-01-17T06:40:03.212Z,80.2
2023-01-17T06:45:03.291Z,80.64
2023-01-17T06:50:03.053Z,79.17
2023-01-17T06:55:03.381Z,79.27
2023-01-17T07:00:02.685Z,79.09
2023-01-17T07:05:02.624Z,79.87
2023-01-17T07:10:03.311Z,79.62
2023-01-17T07:15:03.131Z,79.56
2023-01-17T07:20:03.051Z,79.73
2023-01-17T07:25:03.070Z,80.99
2023-01-17T07:30:02.760Z,80.41
2023-01-17T07:35:02.510Z,78.43
2023-01-17T07:40:03.319Z,78.27
2023-01-17T07:45:02.619Z,79.65
2023-01-17T07:50:03.351Z,80.62
2023-01-17T07:55:03.281Z,80.04
2023-01-17T08:00:03.075Z,80.88
2023-01-17T08:05:02.619Z,79.86
2023-01-17T08:10:02.750Z,80.16
2023-01-17T08:15:03.306Z,80.4
2023-01-17T08:20:03.135Z,80.56
2023-01-17T08:25:03.014Z,79.43
2023-01-17T08:30:02.999Z,78.51
2023-01-17T08:35:02.946Z,77.79
2023-01-17T08:40:02.615Z,77.57
2023-01-17T08:45:02.616Z,77.56
2023-01-17T08:50:03.280Z,74.69
2023-01-17T08:55:03.577Z,77.86
2023-01-17T09:00:02.794Z,77.47
2023-01-17T09:05:02.603Z,75.7
2023-01-17T09:10:03.350Z,76.17
2023-01-17T09:15:03.112Z,77.4
2023-01-17T09:20:02.788Z,79.35
2023-01-17T09:25:02.537Z,80.8
2023-01-17T09:30:02.744Z,82.59
2023-01-17T09:35:02.704Z,83.68
2023-01-17T09:40:02.543Z,84.71
2023-01-17T09:45:03.429Z,87.12
2023-01-17T09:50:03.119Z,87.78
2023-01-17T09:55:03.294Z,86.52
2023-01-17T10:00:04.511Z,85.6
2023-01-17T10:05:03.789Z,83.83
2023-01-17T10:10:03.023Z,81.56
2023-01-17T10:15:02.855Z,81.54
2023-01-17T10:20:02.527Z,82.76
2023-01-17T10:25:03.202Z,83.21
2023-01-17T10:30:03.081Z,80.69
2023-01-17T10:35:02.679Z,80.34
2023-01-17T10:40:03.420Z,78.62
2023-01-17T10:45:03.287Z,73.21
2023-01-17T10:50:02.958Z,71.98
2023-01-17T10:55:03.537Z,73.77
2023-01-17T11:00:02.674Z,74.45
2023-01-17T11:05:02.300Z,76.21
2023-01-17T11:10:03.447Z,77.89
2023-01-17T11:15:03.477Z,75.55
2023-01-17T11:20:03.262Z,77.17
2023-01-17T11:25:03.110Z,75.28
2023-01-17T11:30:02.883Z,75.42
2023-01-17T11:35:02.664Z,73.67
2023-01-17T11:40:03.414Z,74.82
2023-01-17T11:45:03.354Z,76.6
2023-01-17T11:50:03.058Z,75.36
2023-01-17T11:55:02.902Z,73.95
2023-01-17T12:00:03.465Z,73.78
2023-01-17T12:05:03.656Z,74.29
2023-01-17T12:10:03.024Z,71.1
2023-01-17T12:15:02.783Z,74.18
2023-01-17T12:20:02.884Z,73.95
2023-01-17T12:25:02.613Z,73.25
2023-01-17T12:30:03.293Z,74.06
2023-01-17T12:35:03.082Z,74.96
2023-01-17T12:40:02.959Z,74.15
2023-01-17T12:45:02.610Z,75.79
2023-01-17T12:50:03.542Z,74.97
2023-01-17T12:55:04.025Z,77.14
2023-01-17T13:00:03.269Z,75.12
2023-01-17T13:05:02.777Z,76.77
2023-01-17T13:10:02.687Z,73.62
2023-01-17T13:15:03.455Z,73.84
2023-01-17T13:20:03.554Z,73.72
2023-01-17T13:25:02.846Z,71.67
2023-01-17T13:30:02.948Z,75.46
2023-01-17T13:35:02.559Z,72.97
2023-01-17T13:40:02.712Z,71.87
2023-01-17T13:45:03.582Z,72.33
2023-01-17T13:50:03.219Z,72.77
2023-01-17T13:55:03.527Z,73.54
2023-01-17T14:00:02.743Z,72.12
2023-01-17T14:05:02.662Z,69.3
2023-01-17T14:10:03.379Z,72.12
2023-01-17T14:15:03.168Z,72.17
2023-01-17T14:20:03.043Z,70.62
2023-01-17T14:25:02.827Z,72.93
2023-01-17T14:30:02.552Z,73.88
2023-01-17T14:35:03.239Z,73.67
2023-01-17T14:40:03.190Z,74.2
2023-01-17T14:45:03.212Z,74.57
2023-01-17T14:50:03.144Z,71.8
2023-01-17T14:55:03.771Z,72.16
2023-01-17T15:00:02.972Z,73.79
2023-01-17T15:05:03.439Z,73.87
2023-01-17T15:10:03.311Z,77.93
2023-01-17T15:15:03.294Z,79.34
2023-01-17T15:20:03.565Z,79.42
2023-01-17T15:25:03.245Z,78.94
2023-01-17T15:30:03.480Z,77.9
2023-01-17T15:35:02.835Z,76.18
2023-01-17T15:40:03.462Z,75.13
2023-01-17T15:45:02.348Z,75.64
2023-01-17T15:50:03.851Z,76.01
2023-01-17T15:55:03.782Z,77.14
2023-01-17T16:00:02.931Z,78.04
2023-01-17T16:05:02.712Z,78.73
2023-01-17T16:10:02.509Z,78.9
2023-01-17T16:15:14.021Z,79.82
2023-01-17T16:20:02.571Z,79.74
2023-01-17T16:25:03.417Z,79.8
2023-01-17T16:30:03.525Z,80.21
2023-01-17T16:35:03.242Z,80.33
2023-01-17T16:40:03.177Z,79.9
2023-01-17T16:45:03.518Z,80.19
2023-01-17T16:50:02.901Z,80.45
2023-01-17T16:55:03.424Z,80.43
2023-01-17T17:00:03.256Z,80.09
2023-01-17T17:05:03.328Z,81.11
2023-01-17T17:10:03.179Z,81.36
2023-01-17T17:15:02.850Z,80.78
2023-01-17T17:20:02.627Z,79.98
2023-01-17T17:25:03.088Z,79.54
2023-01-17T17:30:02.414Z,79.45
2023-01-17T17:35:03.573Z,80.72
2023-01-17T17:40:03.093Z,81.49
2023-01-17T17:45:03.112Z,82.1
2023-01-17T17:50:03.075Z,80.99
2023-01-17T17:55:03.211Z,80.91
2023-01-17T18:00:02.683Z,81.35
2023-01-17T18:05:03.009Z,81.07
2023-01-17T18:10:03.352Z,80.6
2023-01-17T18:15:03.263Z,80.88
2023-01-17T18:20:03.016Z,81.42
2023-01-17T18:25:02.717Z,81.66
2023-01-17T18:30:02.430Z,82.25
2023-01-17T18:35:03.430Z,81.56
2023-01-17T18:40:03.380Z,81.91
2023-01-17T18:45:03.191Z,83.09
2023-01-17T18:50:02.903Z,83.65
2023-01-17T18:55:03.532Z,84.96
2023-01-17T19:00:02.697Z,84.72
2023-01-17T19:05:08.382Z,83.83
2023-01-17T19:10:03.112Z,84.85
2023-01-17T19:15:03.199Z,88.61
2023-01-17T19:20:02.804Z,89.26
2023-01-17T19:25:02.510Z,93.45
2023-01-17T19:30:03.391Z,92.68
2023-01-17T19:35:03.312Z,93.34
2023-01-17T19:40:03.270Z,94.39
2023-01-17T19:45:03.022Z,94.94
2023-01-17T19:50:02.778Z,95.51
2023-01-17T19:55:03.445Z,96.1
2023-01-17T20:00:03.181Z,95.48
2023-01-17T20:05:02.580Z,95.42
2023-01-17T20:10:03.474Z,95.28
2023-01-17T20:15:02.889Z,96.18
2023-01-17T20:20:02.376Z,96.89
2023-01-17T20:25:03.310Z,96.09
2023-01-17T20:30:20.914Z,95.43
2023-01-17T20:35:02.599Z,97.17
2023-01-17T20:40:03.342Z,98.54
2023-01-17T20:45:03.098Z,99.34
2023-01-17T20:50:02.923Z,99.12
2023-01-17T20:55:03.091Z,98.22
2023-01-17T21:00:03.323Z,97.47
2023-01-17T21:05:03.050Z,99.29
2023-01-17T21:10:03.200Z,99.18
2023-01-17T21:15:02.633Z,98.39
2023-01-17T21:20:02.559Z,98.92
2023-01-17T21:25:03.376Z,97.26
2023-01-17T21:30:03.282Z,100
2023-01-17T21:35:03.325Z,98.73
2023-01-17T21:40:05.689Z,98.42
2023-01-17T21:45:07.709Z,98.48
2023-01-17T21:50:03.379Z,97.06
2023-01-17T21:55:03.633Z,97.22
2023-01-17T22:00:03.057Z,97.67
2023-01-17T22:05:02.930Z,97.23
2023-01-17T22:10:02.550Z,97.54
2023-01-17T22:15:03.285Z,97.42
2023-01-17T22:20:03.434Z,97.34
2023-01-17T22:25:03.187Z,97.23
2023-01-17T22:30:02.640Z,98.81
2023-01-17T22:35:06.975Z,98.72
2023-01-17T22:40:02.757Z,98.48
2023-01-17T22:45:02.961Z,98.6
2023-01-17T22:50:03.123Z,98.22
2023-01-17T22:55:03.351Z,98.92
2023-01-17T23:00:03.187Z,98.74
2023-01-17T23:05:02.696Z,98.95
2023-01-17T23:10:03.442Z,98.78
2023-01-17T23:15:02.748Z,99.45
2023-01-17T23:20:02.660Z,99.4
2023-01-17T23:25:02.589Z,99.42
2023-01-17T23:30:03.535Z,99.83
2023-01-17T23:35:03.248Z,99.44
2023-01-17T23:40:03.015Z,99.89
2023-01-17T23:45:02.868Z,99.92
2023-01-17T23:50:02.479Z,100
2023-01-17T23:55:03.371Z,100
